createdAt,value
2017-06-11T00:01:49.195Z,15.80
2017-06-11T00:04:16.803Z,15.80
2017-06-11T00:06:44.332Z,15.80
2017-06-11T00:09:11.877Z,15.80
2017-06-11T00:11:39.452Z,15.90
2017-06-11T00:14:07.005Z,15.80
2017-06-11T00:16:34.561Z,15.70
2017-06-11T00:19:02.136Z,15.70
2017-06-11T00:21:29.704Z,15.70
2017-06-11T00:23:57.264Z,15.70
2017-06-11T00:26:24.889Z,15.70
2017-06-11T00:28:52.433Z,15.60
2017-06-11T00:31:19.989Z,15.60
2017-06-11T00:33:47.557Z,15.60
2017-06-11T00:36:15.107Z,15.60
2017-06-11T00:38:42.660Z,15.50
2017-06-11T00:41:10.236Z,15.50
2017-06-11T00:43:38.753Z,15.40
2017-06-11T00:46:06.310Z,15.40
2017-06-11T00:48:33.915Z,15.40
2017-06-11T00:51:01.469Z,15.40
2017-06-11T00:53:29.020Z,15.40
2017-06-11T00:55:56.604Z,15.40
2017-06-11T00:58:24.162Z,15.40
2017-06-11T01:00:52.104Z,15.30
2017-06-11T01:03:19.686Z,15.40
2017-06-11T01:05:47.229Z,15.30
2017-06-11T01:08:14.789Z,15.30
2017-06-11T01:10:42.356Z,15.10
2017-06-11T01:13:09.912Z,15.00
2017-06-11T01:15:37.479Z,15.00
2017-06-11T01:18:05.109Z,15.10
2017-06-11T01:20:32.665Z,15.10
2017-06-11T01:23:00.235Z,15.10
2017-06-11T01:25:27.805Z,15.00
2017-06-11T01:27:55.358Z,15.00
2017-06-11T01:30:22.917Z,15.00
2017-06-11T01:32:50.484Z,14.90
2017-06-11T01:35:18.038Z,14.90
2017-06-11T01:37:45.606Z,14.90
2017-06-11T01:40:13.200Z,14.90
2017-06-11T01:42:41.152Z,14.90
2017-06-11T01:45:08.704Z,15.00
2017-06-11T01:47:36.286Z,14.90
2017-06-11T01:50:03.844Z,15.00
2017-06-11T01:52:31.393Z,15.00
2017-06-11T01:54:58.969Z,14.90
2017-06-11T01:57:26.524Z,14.90
2017-06-11T01:59:54.081Z,14.90
2017-06-11T02:02:21.648Z,14.90
2017-06-11T02:04:49.204Z,14.80
2017-06-11T02:07:16.753Z,14.70
2017-06-11T02:09:44.345Z,14.70
2017-06-11T02:12:11.901Z,14.70
2017-06-11T02:14:39.463Z,14.70
2017-06-11T02:17:07.073Z,14.70
2017-06-11T02:19:34.624Z,14.60
2017-06-11T02:22:02.176Z,14.60
2017-06-11T02:24:29.753Z,14.60
2017-06-11T02:26:57.313Z,14.50
2017-06-11T02:29:24.865Z,14.50
2017-06-11T02:31:52.492Z,14.60
2017-06-11T02:34:20.065Z,14.60
2017-06-11T02:36:47.624Z,14.60
2017-06-11T02:39:15.195Z,14.50
2017-06-11T02:41:42.756Z,14.40
2017-06-11T02:44:10.309Z,14.30
2017-06-11T02:46:37.885Z,14.20
2017-06-11T02:49:05.448Z,14.20
2017-06-11T02:51:33.025Z,14.20
2017-06-11T02:54:00.600Z,14.30
2017-06-11T02:56:28.157Z,14.30
2017-06-11T02:58:55.712Z,14.30
2017-06-11T03:01:23.292Z,14.30
2017-06-11T03:03:50.837Z,14.30
2017-06-11T03:06:18.391Z,14.40
2017-06-11T03:08:45.988Z,14.40
2017-06-11T03:11:13.540Z,14.30
2017-06-11T03:13:41.105Z,14.30
2017-06-11T03:16:08.681Z,14.30
2017-06-11T03:18:36.245Z,14.20
2017-06-11T03:21:03.816Z,14.20
2017-06-11T03:23:31.802Z,14.20
2017-06-11T03:25:59.364Z,14.20
2017-06-11T03:28:26.923Z,14.20
2017-06-11T03:30:54.533Z,14.10
2017-06-11T03:33:22.097Z,14.20
2017-06-11T03:35:49.647Z,14.20
2017-06-11T03:38:17.220Z,14.20
2017-06-11T03:40:44.780Z,14.20
2017-06-11T03:43:12.328Z,14.20
2017-06-11T03:45:39.904Z,14.20
2017-06-11T03:48:07.465Z,14.20
2017-06-11T03:50:35.023Z,14.20
2017-06-11T03:53:02.609Z,14.20
2017-06-11T03:55:30.165Z,14.20
2017-06-11T03:57:57.721Z,14.20
2017-06-11T04:00:25.300Z,14.30
2017-06-11T04:02:53.257Z,14.40
2017-06-11T04:05:20.818Z,14.40
2017-06-11T04:07:48.388Z,14.40
2017-06-11T04:10:15.944Z,14.40
2017-06-11T04:12:43.496Z,14.50
2017-06-11T04:15:11.097Z,14.50
2017-06-11T04:17:38.654Z,14.60
2017-06-11T04:20:06.214Z,14.60
2017-06-11T04:22:34.188Z,14.80
2017-06-11T04:25:01.744Z,14.80
2017-06-11T04:27:29.316Z,14.80
2017-06-11T04:29:56.884Z,14.80
2017-06-11T04:32:24.441Z,14.80
2017-06-11T04:34:51.991Z,14.90
2017-06-11T04:37:19.572Z,15.00
2017-06-11T04:39:47.126Z,15.10
2017-06-11T04:42:14.681Z,15.20
2017-06-11T04:44:42.256Z,15.20
2017-06-11T04:47:09.812Z,15.20
2017-06-11T04:49:37.437Z,15.30
2017-06-11T04:52:05.008Z,15.40
2017-06-11T04:54:32.963Z,15.40
2017-06-11T04:57:00.516Z,15.40
2017-06-11T04:59:28.097Z,15.50
2017-06-11T05:01:55.661Z,15.50
2017-06-11T05:04:23.609Z,15.80
2017-06-11T05:06:51.185Z,15.80
2017-06-11T05:09:18.736Z,15.90
2017-06-11T05:11:46.298Z,15.90
2017-06-11T05:14:13.872Z,16.00
2017-06-11T05:16:41.826Z,16.20
2017-06-11T05:19:09.383Z,16.20
2017-06-11T05:21:36.952Z,16.20
2017-06-11T05:24:04.500Z,16.40
2017-06-11T05:26:32.045Z,16.50
2017-06-11T05:28:59.612Z,16.50
2017-06-11T05:31:27.170Z,16.60
2017-06-11T05:33:54.715Z,16.70
2017-06-11T05:36:22.288Z,16.80
2017-06-11T05:38:49.840Z,16.90
2017-06-11T05:41:17.413Z,16.90
2017-06-11T05:43:44.985Z,16.90
2017-06-11T05:46:12.536Z,17.10
2017-06-11T05:48:40.081Z,17.20
2017-06-11T05:51:07.652Z,17.30
2017-06-11T05:53:35.206Z,17.50
2017-06-11T05:56:02.757Z,17.50
2017-06-11T05:58:30.444Z,17.60
2017-06-11T06:00:57.992Z,17.70
2017-06-11T06:03:25.541Z,17.70
2017-06-11T06:05:53.112Z,17.80
2017-06-11T06:08:20.668Z,18.00
2017-06-11T06:10:48.220Z,18.00
2017-06-11T06:13:15.796Z,18.10
2017-06-11T06:15:43.332Z,18.20
2017-06-11T06:18:10.885Z,18.30
2017-06-11T06:20:38.852Z,18.50
2017-06-11T06:23:06.416Z,18.50
2017-06-11T06:25:33.964Z,18.60
2017-06-11T06:28:01.552Z,18.60
2017-06-11T06:30:29.096Z,18.70
2017-06-11T06:32:57.049Z,18.80
2017-06-11T06:35:24.627Z,18.80
2017-06-11T06:37:52.189Z,18.80
2017-06-11T06:40:19.749Z,18.90
2017-06-11T06:42:47.324Z,19.00
2017-06-11T06:45:14.872Z,19.10
2017-06-11T06:47:42.428Z,19.20
2017-06-11T06:50:10.453Z,19.50
2017-06-11T06:52:38.000Z,19.50
2017-06-11T06:55:05.558Z,19.50
2017-06-11T06:57:33.123Z,19.60
2017-06-11T07:00:00.676Z,19.80
2017-06-11T07:02:28.239Z,20.00
2017-06-11T07:04:55.797Z,20.10
2017-06-11T07:07:23.361Z,20.10
2017-06-11T07:09:50.924Z,20.30
2017-06-11T07:12:18.505Z,20.40
2017-06-11T07:14:46.056Z,20.40
2017-06-11T07:17:13.613Z,20.50
2017-06-11T07:19:41.177Z,20.50
2017-06-11T07:22:08.721Z,20.60
2017-06-11T07:24:36.264Z,20.60
2017-06-11T07:27:03.833Z,20.70
2017-06-11T07:29:31.377Z,20.90
2017-06-11T07:31:59.316Z,21.20
2017-06-11T07:34:26.886Z,21.30
2017-06-11T07:36:54.436Z,21.40
2017-06-11T07:39:21.985Z,21.50
2017-06-11T07:41:49.556Z,21.50
2017-06-11T07:44:17.124Z,21.70
2017-06-11T07:46:44.665Z,21.80
2017-06-11T07:49:12.237Z,22.00
2017-06-11T07:51:39.778Z,22.00
2017-06-11T07:54:07.324Z,22.10
2017-06-11T07:56:34.889Z,22.30
2017-06-11T07:59:02.432Z,22.40
2017-06-11T08:01:29.988Z,22.60
2017-06-11T08:03:57.557Z,22.70
2017-06-11T08:06:25.104Z,22.60
2017-06-11T08:08:52.657Z,22.70
2017-06-11T08:11:20.636Z,22.90
2017-06-11T08:13:48.189Z,22.90
2017-06-11T08:16:16.124Z,23.00
2017-06-11T08:18:43.684Z,23.00
2017-06-11T08:21:11.231Z,23.00
2017-06-11T08:23:38.769Z,23.20
2017-06-11T08:26:06.341Z,23.10
2017-06-11T08:28:33.897Z,23.40
2017-06-11T08:31:01.444Z,23.50
2017-06-11T08:33:29.016Z,23.60
2017-06-11T08:35:56.585Z,23.80
2017-06-11T08:38:24.132Z,23.80
2017-06-11T08:40:51.685Z,23.90
2017-06-11T08:43:19.257Z,24.10
2017-06-11T08:45:46.801Z,24.10
2017-06-11T08:48:14.344Z,24.30
2017-06-11T08:50:42.315Z,24.60
2017-06-11T08:53:09.860Z,24.60
2017-06-11T08:55:37.419Z,24.60
2017-06-11T08:58:04.975Z,24.60
2017-06-11T09:00:32.530Z,24.70
2017-06-11T09:03:00.059Z,24.90
2017-06-11T09:05:27.634Z,25.00
2017-06-11T09:07:55.185Z,24.90
2017-06-11T09:10:22.739Z,25.00
2017-06-11T09:12:50.301Z,25.10
2017-06-11T09:15:17.849Z,25.10
2017-06-11T09:17:45.392Z,25.30
2017-06-11T09:20:12.960Z,25.60
2017-06-11T09:22:40.517Z,25.70
2017-06-11T09:25:08.065Z,25.60
2017-06-11T09:27:36.037Z,25.80
2017-06-11T09:30:03.985Z,25.90
2017-06-11T09:32:31.537Z,25.90
2017-06-11T09:34:59.104Z,26.10
2017-06-11T09:37:26.644Z,26.00
2017-06-11T09:39:54.194Z,26.20
2017-06-11T09:42:21.751Z,26.20
2017-06-11T09:44:49.297Z,26.30
2017-06-11T09:47:16.840Z,26.50
2017-06-11T09:49:44.408Z,26.50
2017-06-11T09:52:11.951Z,26.70
2017-06-11T09:54:39.501Z,26.50
2017-06-11T09:57:07.077Z,26.70
2017-06-11T09:59:35.013Z,26.90
2017-06-11T10:02:02.547Z,26.90
2017-06-11T10:04:30.121Z,27.30
2017-06-11T10:06:57.660Z,27.00
2017-06-11T10:09:25.209Z,26.70
2017-06-11T10:11:52.784Z,27.10
2017-06-11T10:14:20.328Z,27.20
2017-06-11T10:16:47.876Z,27.20
2017-06-11T10:19:15.444Z,27.40
2017-06-11T10:21:42.997Z,27.30
2017-06-11T10:24:10.540Z,27.30
2017-06-11T10:26:38.248Z,27.40
2017-06-11T10:29:05.789Z,27.30
2017-06-11T10:31:33.343Z,27.40
2017-06-11T10:34:00.909Z,27.40
2017-06-11T10:36:28.457Z,27.60
2017-06-11T10:38:56.000Z,27.60
2017-06-11T10:41:23.581Z,27.70
2017-06-11T10:43:51.521Z,27.90
2017-06-11T10:46:19.061Z,27.90
2017-06-11T10:48:46.645Z,27.70
2017-06-11T10:51:14.198Z,27.80
2017-06-11T10:53:41.736Z,27.80
2017-06-11T10:56:09.300Z,27.80
2017-06-11T10:58:36.844Z,27.80
2017-06-11T11:01:04.393Z,27.80
2017-06-11T11:03:31.955Z,28.00
2017-06-11T11:05:59.500Z,28.00
2017-06-11T11:08:27.444Z,28.10
2017-06-11T11:10:55.013Z,28.10
2017-06-11T11:13:22.557Z,28.20
2017-06-11T11:15:50.109Z,28.30
2017-06-11T11:18:17.675Z,28.40
2017-06-11T11:20:45.227Z,28.10
2017-06-11T11:23:13.240Z,28.00
2017-06-11T11:25:41.217Z,28.20
2017-06-11T11:28:08.760Z,28.20
2017-06-11T11:30:36.305Z,28.50
2017-06-11T11:33:03.875Z,28.50
2017-06-11T11:35:31.423Z,28.40
2017-06-11T11:37:58.976Z,28.40
2017-06-11T11:40:26.545Z,28.40
2017-06-11T11:42:54.089Z,28.40
2017-06-11T11:45:21.650Z,28.50
2017-06-11T11:47:49.221Z,28.40
2017-06-11T11:50:16.768Z,28.40
2017-06-11T11:52:44.311Z,28.40
2017-06-11T11:55:11.880Z,28.50
2017-06-11T11:57:39.419Z,28.40
2017-06-11T12:00:06.972Z,28.40
2017-06-11T12:02:34.545Z,28.40
2017-06-11T12:05:02.100Z,28.50
2017-06-11T12:07:29.640Z,28.50
2017-06-11T12:09:57.216Z,28.40
2017-06-11T12:12:25.164Z,28.40
2017-06-11T12:14:52.713Z,28.40
2017-06-11T12:17:20.290Z,28.70
2017-06-11T12:19:47.841Z,28.60
2017-06-11T12:22:15.373Z,28.50
2017-06-11T12:24:42.944Z,28.70
2017-06-11T12:27:10.494Z,28.70
2017-06-11T12:29:38.036Z,28.70
2017-06-11T12:32:05.953Z,28.80
2017-06-11T12:34:33.492Z,28.70
2017-06-11T12:37:01.035Z,28.80
2017-06-11T12:39:28.606Z,28.90
2017-06-11T12:41:56.150Z,29.00
2017-06-11T12:44:23.692Z,28.90
2017-06-11T12:46:51.256Z,28.90
2017-06-11T12:49:18.804Z,29.10
2017-06-11T12:51:46.736Z,29.20
2017-06-11T12:54:14.312Z,29.20
2017-06-11T12:56:41.876Z,29.20
2017-06-11T12:59:09.426Z,29.10
2017-06-11T13:01:36.992Z,29.20
2017-06-11T13:04:04.542Z,29.20
2017-06-11T13:06:32.080Z,29.40
2017-06-11T13:09:00.029Z,29.40
2017-06-11T13:11:27.576Z,29.20
2017-06-11T13:13:55.130Z,29.20
2017-06-11T13:16:22.699Z,29.30
2017-06-11T13:18:50.256Z,29.40
2017-06-11T13:21:17.797Z,29.50
2017-06-11T13:23:45.369Z,29.60
2017-06-11T13:26:13.312Z,29.70
2017-06-11T13:28:40.854Z,29.70
2017-06-11T13:31:08.420Z,29.70
2017-06-11T13:33:35.965Z,29.50
2017-06-11T13:36:03.507Z,29.50
2017-06-11T13:38:31.080Z,29.80
2017-06-11T13:40:58.619Z,29.90
2017-06-11T13:43:26.169Z,30.00
2017-06-11T13:45:54.127Z,29.90
2017-06-11T13:48:21.667Z,30.00
2017-06-11T13:50:49.225Z,29.80
2017-06-11T13:53:16.797Z,29.70
2017-06-11T13:55:44.349Z,29.80
2017-06-11T13:58:11.894Z,30.20
2017-06-11T14:00:39.465Z,30.30
2017-06-11T14:03:07.021Z,30.40
2017-06-11T14:05:34.571Z,30.50
2017-06-11T14:08:02.133Z,30.30
2017-06-11T14:10:29.680Z,30.30
2017-06-11T14:12:57.219Z,30.30
2017-06-11T14:15:24.788Z,30.40
2017-06-11T14:17:52.334Z,30.50
2017-06-11T14:20:19.876Z,30.50
2017-06-11T14:22:47.852Z,30.70
2017-06-11T14:25:15.800Z,30.80
2017-06-11T14:27:43.343Z,30.80
2017-06-11T14:30:16.453Z,30.60
2017-06-11T14:32:43.996Z,30.50
2017-06-11T14:35:11.545Z,30.50
2017-06-11T14:37:39.112Z,30.60
2017-06-11T14:40:06.662Z,30.60
2017-06-11T14:42:34.201Z,30.80
2017-06-11T14:45:01.781Z,31.00
2017-06-11T14:47:29.337Z,31.00
2017-06-11T14:49:56.885Z,31.00
2017-06-11T14:52:24.457Z,31.10
2017-06-11T14:54:52.004Z,31.10
2017-06-11T14:57:19.557Z,31.20
2017-06-11T14:59:47.124Z,31.30
2017-06-11T15:02:14.668Z,31.10
2017-06-11T15:04:42.622Z,31.00
2017-06-11T15:07:10.196Z,31.00
2017-06-11T15:09:37.740Z,31.00
2017-06-11T15:12:05.285Z,31.10
2017-06-11T15:14:32.855Z,31.20
2017-06-11T15:17:00.404Z,31.20
2017-06-11T15:19:27.956Z,31.20
2017-06-11T15:21:55.529Z,31.40
2017-06-11T15:24:23.038Z,31.60
2017-06-11T15:26:50.625Z,31.80
2017-06-11T15:29:18.200Z,31.70
2017-06-11T15:31:45.768Z,31.60
2017-06-11T15:34:13.312Z,31.70
2017-06-11T15:36:40.944Z,31.80
2017-06-11T15:39:08.491Z,31.40
2017-06-11T15:41:36.040Z,31.30
2017-06-11T15:44:03.625Z,31.20
2017-06-11T15:46:31.669Z,32.40
2017-06-11T15:48:59.216Z,32.40
2017-06-11T15:51:26.911Z,32.50
2017-06-11T15:53:54.452Z,32.30
2017-06-11T15:56:22.004Z,31.70
2017-06-11T15:58:49.597Z,31.10
2017-06-11T16:01:17.145Z,30.80
2017-06-11T16:03:44.736Z,30.30
2017-06-11T16:06:13.170Z,29.80
2017-06-11T16:08:40.729Z,29.80
2017-06-11T16:11:08.277Z,29.80
2017-06-11T16:13:35.906Z,29.60
2017-06-11T16:16:03.460Z,29.70
2017-06-11T16:18:31.012Z,29.70
2017-06-11T16:20:58.601Z,29.80
2017-06-11T16:23:26.156Z,29.90
2017-06-11T16:25:53.736Z,30.00
2017-06-11T16:28:21.296Z,30.50
2017-06-11T16:30:48.857Z,30.50
2017-06-11T16:33:16.400Z,30.30
2017-06-11T16:35:43.984Z,30.10
2017-06-11T16:38:11.529Z,29.80
2017-06-11T16:40:39.114Z,29.60
2017-06-11T16:43:06.673Z,29.60
2017-06-11T16:45:34.219Z,29.40
2017-06-11T16:48:01.795Z,29.10
2017-06-11T16:50:29.340Z,29.20
2017-06-11T16:52:56.890Z,29.40
2017-06-11T16:55:24.473Z,29.40
2017-06-11T16:57:52.020Z,29.40
2017-06-11T17:00:19.580Z,29.30
2017-06-11T17:02:47.154Z,29.10
2017-06-11T17:05:14.709Z,29.10
2017-06-11T17:07:42.272Z,29.10
2017-06-11T17:10:09.863Z,29.10
2017-06-11T17:12:37.409Z,28.90
2017-06-11T17:15:04.980Z,28.70
2017-06-11T17:17:32.565Z,28.50
2017-06-11T17:20:00.113Z,28.40
2017-06-11T17:22:27.675Z,28.30
2017-06-11T17:24:55.229Z,28.20
2017-06-11T17:27:22.776Z,28.10
2017-06-11T17:29:50.346Z,28.20
2017-06-11T17:32:17.897Z,28.10
2017-06-11T17:34:45.450Z,28.10
2017-06-11T17:37:13.017Z,28.10
2017-06-11T17:39:40.564Z,28.50
2017-06-11T17:42:08.124Z,28.50
2017-06-11T17:44:35.701Z,28.40
2017-06-11T17:47:03.248Z,28.30
2017-06-11T17:49:30.797Z,28.30
2017-06-11T17:51:58.374Z,28.10
2017-06-11T17:54:25.911Z,28.00
2017-06-11T17:56:53.457Z,28.10
2017-06-11T17:59:21.037Z,28.00
2017-06-11T18:01:48.579Z,27.80
2017-06-11T18:04:16.132Z,27.70
2017-06-11T18:06:43.708Z,27.60
2017-06-11T18:09:11.252Z,27.80
2017-06-11T18:11:38.813Z,27.90
2017-06-11T18:14:06.394Z,27.80
2017-06-11T18:16:33.994Z,27.80
2017-06-11T18:19:01.568Z,27.90
2017-06-11T18:21:29.203Z,27.90
2017-06-11T18:23:57.139Z,27.90
2017-06-11T18:26:25.112Z,27.80
2017-06-11T18:28:53.403Z,27.80
2017-06-11T18:31:22.179Z,27.70
2017-06-11T18:33:50.589Z,27.70
2017-06-11T18:36:19.094Z,27.70
2017-06-11T18:38:47.678Z,27.50
2017-06-11T18:41:16.343Z,27.40
2017-06-11T18:43:45.373Z,27.30
2017-06-11T18:46:14.008Z,27.30
2017-06-11T18:48:42.540Z,27.30
2017-06-11T18:51:12.047Z,27.20
2017-06-11T18:53:40.700Z,27.00
2017-06-11T18:56:09.212Z,26.90
2017-06-11T18:58:37.759Z,26.80
2017-06-11T19:01:06.407Z,26.70
2017-06-11T19:03:34.949Z,26.70
2017-06-11T19:06:03.508Z,26.60
2017-06-11T19:08:32.106Z,26.50
2017-06-11T19:11:00.649Z,26.50
2017-06-11T19:13:29.221Z,26.40
2017-06-11T19:15:57.890Z,26.30
2017-06-11T19:18:27.459Z,26.20
2017-06-11T19:20:56.873Z,26.20
2017-06-11T19:23:25.524Z,26.10
2017-06-11T19:25:54.099Z,26.10
2017-06-11T19:28:22.646Z,26.20
2017-06-11T19:30:51.300Z,26.10
2017-06-11T19:33:20.225Z,26.00
2017-06-11T19:35:48.945Z,26.00
2017-06-11T19:38:17.742Z,25.80
2017-06-11T19:40:46.295Z,25.70
2017-06-11T19:43:14.881Z,25.50
2017-06-11T19:45:43.578Z,25.40
2017-06-11T19:48:12.125Z,25.40
2017-06-11T19:50:40.687Z,25.30
2017-06-11T19:53:09.354Z,25.30
2017-06-11T19:55:37.924Z,25.20
2017-06-11T19:58:06.502Z,25.20
2017-06-11T20:00:35.177Z,25.10
2017-06-11T20:03:03.748Z,25.10
2017-06-11T20:05:32.337Z,25.10
2017-06-11T20:08:01.931Z,25.20
2017-06-11T20:10:30.487Z,25.40
2017-06-11T20:12:59.734Z,25.50
2017-06-11T20:15:28.433Z,25.50
2017-06-11T20:17:56.941Z,25.70
2017-06-11T20:20:25.500Z,25.70
2017-06-11T20:22:54.140Z,25.70
2017-06-11T20:25:22.748Z,25.80
2017-06-11T20:27:51.360Z,25.80
2017-06-11T20:30:20.027Z,25.80
2017-06-11T20:32:48.751Z,25.70
2017-06-11T20:35:17.278Z,25.60
2017-06-11T20:37:45.983Z,25.60
2017-06-11T20:40:14.672Z,25.60
2017-06-11T20:42:43.255Z,25.40
2017-06-11T20:45:11.954Z,25.50
2017-06-11T20:47:40.532Z,25.50
2017-06-11T20:50:09.135Z,25.40
2017-06-11T20:52:37.804Z,25.30
2017-06-11T20:55:06.395Z,25.30
2017-06-11T20:57:34.982Z,25.20
2017-06-11T21:00:03.653Z,25.20
2017-06-11T21:02:32.203Z,25.10
2017-06-11T21:05:00.736Z,25.10
2017-06-11T21:07:29.363Z,25.10
2017-06-11T21:09:57.865Z,25.10
2017-06-11T21:12:26.405Z,25.20
2017-06-11T21:14:55.056Z,25.20
2017-06-11T21:17:24.128Z,25.10
2017-06-11T21:19:52.699Z,25.10
2017-06-11T21:22:21.342Z,25.00
2017-06-11T21:24:49.885Z,24.80
2017-06-11T21:27:18.401Z,24.70
2017-06-11T21:29:46.983Z,24.70
2017-06-11T21:32:15.481Z,24.60
2017-06-11T21:34:43.737Z,24.50
2017-06-11T21:37:11.775Z,24.40
2017-06-11T21:39:39.502Z,24.40
2017-06-11T21:42:07.100Z,24.50
2017-06-11T21:44:34.681Z,24.40
2017-06-11T21:47:02.242Z,24.40
2017-06-11T21:49:29.822Z,24.30
2017-06-11T21:51:57.405Z,24.20
2017-06-11T21:54:24.956Z,24.10
2017-06-11T21:56:52.515Z,24.20
2017-06-11T21:59:20.088Z,24.20
2017-06-11T22:01:47.642Z,24.20
2017-06-11T22:04:15.195Z,24.20
2017-06-11T22:06:42.852Z,24.30
2017-06-11T22:09:10.400Z,24.40
2017-06-11T22:11:37.973Z,24.30
2017-06-11T22:14:05.588Z,24.30
2017-06-11T22:16:33.161Z,24.20
2017-06-11T22:19:00.724Z,24.20
2017-06-11T22:21:28.701Z,24.10
2017-06-11T22:23:56.618Z,24.10
2017-06-11T22:26:24.232Z,24.10
2017-06-11T22:28:51.829Z,24.00
2017-06-11T22:31:19.375Z,24.00
2017-06-11T22:33:46.932Z,23.90
2017-06-11T22:36:14.509Z,24.00
2017-06-11T22:38:42.069Z,23.90
2017-06-11T22:41:09.633Z,23.80
2017-06-11T22:43:37.221Z,23.80
2017-06-11T22:46:04.764Z,23.70
2017-06-11T22:48:32.307Z,23.60
2017-06-11T22:50:59.888Z,23.50
2017-06-11T22:53:27.431Z,23.50
2017-06-11T22:55:54.989Z,23.40
2017-06-11T22:58:22.571Z,23.40
2017-06-11T23:00:50.137Z,23.40
2017-06-11T23:03:17.688Z,23.30
2017-06-11T23:05:45.260Z,23.30
2017-06-11T23:08:12.818Z,23.30
2017-06-11T23:10:40.369Z,23.20
2017-06-11T23:13:07.931Z,23.20
2017-06-11T23:15:35.489Z,23.10
2017-06-11T23:18:03.048Z,23.10
2017-06-11T23:20:30.629Z,22.90
2017-06-11T23:22:58.186Z,22.90
2017-06-11T23:25:25.761Z,22.90
2017-06-11T23:27:53.343Z,22.80
2017-06-11T23:30:21.291Z,22.60
2017-06-11T23:32:48.842Z,22.70
2017-06-11T23:35:16.424Z,22.60
2017-06-11T23:37:43.969Z,22.60
2017-06-11T23:40:11.525Z,22.70
2017-06-11T23:42:39.604Z,22.60
2017-06-11T23:45:07.148Z,22.60
2017-06-11T23:47:34.697Z,22.50
2017-06-11T23:50:02.297Z,22.50
2017-06-11T23:52:29.848Z,22.50
2017-06-11T23:54:57.399Z,22.50
2017-06-11T23:57:24.975Z,22.40
2017-06-11T23:59:52.529Z,22.40
